Details for QantasLink at YSSY




Go Back


Latest METAR
Local Time

YSSY 252200Z 32007KT CAVOK 12/09 Q1030

26/05/2018, 08:24:51

Description
Results
QantasLink Logo
Number of Pilots based at YSSY
0 Pilots Based here
Number of QantasLink Flights Departed from YSSY
0 Flights Departed
Number of QantasLink Flights Arrived at YSSY
0 Flights Arrived
Number of QantasLink Schedules Departing from YSSY
65 Schedules
Number of QantasLink Schedules Arriving at YSSY
71 Schedules
Number of QantasLink Schedules Departing from YSSY availible today
39 Schedules Today
Number of QantasLink Schedules Arriving at YSSY availible today
38 Schedules Today
Average Landing Rate at YSSY
-212 fpm
QantasLink Average Landing Rate at YSSY
0 fpm
Total Fuel Purchased at YSSY by QantasLink
0.00 kgs / 0.00 lbs

Pilots Based at YSSY


Pilot ID
Pilot Name
Pilot Rank
No. of Flights
No. of Flying Hours
There are no pilots assigned to this hub!   Will you be the first?
Content